Sainte-Anne-De-Beaupre, Canada
Current Conditions -  °F | °C
As of 4:00 PM on Tuesday 21 Oct 2014 (Local Time) from CYQB Reporting Station
Broken Clouds Broken Clouds  
Wind Chill: 41°   Ceiling: 6000
Heat Index: 46°   Visibility: 30mi
Dew Point: 32°   Wind: 10mph
Humidity: 57%   Direction: 80°E
Pressure: 30.14"   Gusts: NA
Location:  47.02°N, 70.93°W
Report Text: CYQB 212000Z 08009KT 30SM BKN060 08/M00 A3014 RMK SC7 SLP209
Loading
Personal Weather Stations






























Interactive Weather Map
Tropical Storm Tracking
New forecast layout! Learn more

10-Day Weather Forecast

Advertisements
Track Severe Weather on mobile